Time;durP1;ratioP1;P1;durP2;ratioP2;P2;SDS_P1;SDS_P2;PMS_P1;PMS_P2;Temp;Humidity;BMP_temperature;BMP_pressure;BME280_temperature;BME280_humidity;BME280_pressure;Samples;Min_cycle;Max_cycle;Signal;HPM_P1;HPM_P2
2023/05/19 00:01:53;;;;;;;;;;;;;;;16.38;98.80;99832.16;5041866;28;19921;-42
2023/05/19 00:04:20;;;;;;;;;;;;;;;17.04;99.35;99824.91;5041349;28;19964;-42
2023/05/19 00:06:45;;;;;;;;;;;;;;;16.50;100.00;99834.22;5023890;28;19913;-42
2023/05/19 00:09:11;;;;;;;;;;;;;;;16.14;100.00;99832.25;5023713;28;19913;-41
2023/05/19 00:11:37;;;;;;;;;;;;;;;16.59;98.28;99805.22;5041944;28;19952;-42
2023/05/19 00:14:03;;;;;;;;;;;;;;;15.90;100.00;99834.13;5040836;28;20614;-42
2023/05/19 00:16:29;;;;;;;;;;;;;;;15.67;100.00;99820.28;5021859;28;19982;-42
2023/05/19 00:18:55;;;;;;;;;;;;;;;16.37;100.00;99814.84;5041494;28;20388;-42
2023/05/19 00:21:21;;;;;;;;;;;;;;;16.04;100.00;99815.38;5042122;28;19967;-42
2023/05/19 00:23:46;;;;;;;;;;;;;;;16.22;99.88;99804.19;5040106;28;20015;-42
2023/05/19 00:26:11;;;;;;;;;;;;;;;16.31;100.00;99814.19;5040162;28;19921;-43
2023/05/19 00:28:36;;;;;;;;;;;;;;;16.30;100.00;99811.66;5039815;28;19973;-42
2023/05/19 00:31:03;;;;;;;;;;;;;;;15.60;100.00;99820.56;5040594;28;19925;-42
2023/05/19 00:33:28;;;;;;;;;;;;;;;16.37;100.00;99810.47;5022675;28;19924;-43
2023/05/19 00:35:53;;;;;;;;;;;;;;;16.06;98.94;99788.41;5040210;28;19925;-42
2023/05/19 00:38:18;;;;;;;;;;;;;;;16.57;97.12;99781.03;5041135;28;20038;-42
2023/05/19 00:40:44;;;;;;;;;;;;;;;15.74;99.80;99807.09;5040459;28;19931;-42
2023/05/19 00:43:09;;;;;;;;;;;;;;;16.48;100.00;99795.25;5040623;28;19940;-41
2023/05/19 00:45:34;;;;;;;;;;;;;;;16.76;100.00;99790.59;5038284;28;19928;-41
2023/05/19 00:48:00;;;;;;;;;;;;;;;16.02;100.00;99801.59;5039813;28;20503;-42
2023/05/19 00:50:26;;;;;;;;;;;;;;;15.41;100.00;99821.28;5041335;28;19921;-42
2023/05/19 00:52:51;;;;;;;;;;;;;;;15.70;100.00;99788.13;5021903;28;20015;-42
2023/05/19 00:55:16;;;;;;;;;;;;;;;15.86;99.37;99781.44;5021469;28;20004;-42
2023/05/19 00:57:42;;;;;;;;;;;;;;;16.40;99.09;99776.56;5039885;28;19924;-42
2023/05/19 01:00:07;;;;;;;;;;;;;;;16.78;97.44;99760.16;5019954;28;19939;-42
2023/05/19 01:02:33;;;;;;;;;;;;;;;16.49;96.62;99764.94;5040968;28;20447;-42
2023/05/19 01:04:58;;;;;;;;;;;;;;;18.03;90.94;99724.69;5021921;28;19971;-42
2023/05/19 01:07:24;;;;;;;;;;;;;;;18.54;88.58;99709.84;5040111;28;19978;-42
2023/05/19 01:09:49;;;;;;;;;;;;;;;18.73;85.75;99704.47;5038720;28;19917;-42
2023/05/19 01:12:15;;;;;;;;;;;;;;;18.91;83.33;99692.22;5022373;28;19927;-42
2023/05/19 01:14:40;;;;;;;;;;;;;;;18.43;84.87;99714.81;5038135;28;19929;-42
2023/05/19 01:17:14;;;;;;;;;;;;;;;18.42;84.81;99715.69;5004507;28;19935;-42
2023/05/19 01:19:39;;;;;;;;;;;;;;;18.31;85.93;99726.69;5039826;28;19927;-42
2023/05/19 01:22:11;;;;;;;;;;;;;;;18.69;83.37;99704.72;5039026;28;20000;-42
2023/05/19 01:24:55;;;;;;;;;;;;;;;19.10;81.15;99689.41;5039095;28;19923;-42
2023/05/19 01:27:20;;;;;;;;;;;;;;;18.01;83.85;99723.06;5039512;28;20022;-42
2023/05/19 01:29:55;;;;;;;;;;;;;;;17.43;84.37;99722.44;5038705;28;20420;-42
2023/05/19 01:32:20;;;;;;;;;;;;;;;18.44;83.87;99699.97;5038686;28;20301;-42
2023/05/19 01:34:45;;;;;;;;;;;;;;;17.37;86.11;99733.13;5001987;28;19924;-42
2023/05/19 01:37:11;;;;;;;;;;;;;;;17.45;84.83;99709.34;5021598;28;19927;-42
2023/05/19 01:39:36;;;;;;;;;;;;;;;18.09;87.35;99731.34;5021624;28;20396;-42
2023/05/19 01:42:02;;;;;;;;;;;;;;;17.93;85.85;99707.84;5021033;28;20713;-42
2023/05/19 01:44:27;;;;;;;;;;;;;;;18.72;84.05;99700.16;5018987;28;20512;-42
2023/05/19 01:46:52;;;;;;;;;;;;;;;18.81;82.13;99698.84;5021411;28;19931;-42
2023/05/19 01:49:18;;;;;;;;;;;;;;;18.61;81.20;99692.09;5039712;28;19913;-42
2023/05/19 01:51:43;;;;;;;;;;;;;;;18.03;81.39;99705.59;5037384;28;19967;-42
2023/05/19 01:54:08;;;;;;;;;;;;;;;18.81;81.98;99699.69;5037444;28;20442;-42
2023/05/19 01:56:56;;;;;;;;;;;;;;;17.73;84.05;99729.66;5038600;28;20390;-42
2023/05/19 01:59:31;;;;;;;;;;;;;;;18.55;82.15;99698.47;5037464;28;19925;-42
2023/05/19 02:01:56;;;;;;;;;;;;;;;18.41;80.93;99695.78;5037350;28;19929;-42
2023/05/19 02:04:21;;;;;;;;;;;;;;;18.42;80.73;99694.84;5021020;28;19923;-42
2023/05/19 02:06:54;;;;;;;;;;;;;;;18.70;81.74;99702.03;5037933;28;19921;-42
2023/05/19 02:09:19;;;;;;;;;;;;;;;18.39;82.87;99714.09;5038258;28;19923;-42
2023/05/19 02:11:52;;;;;;;;;;;;;;;18.37;83.29;99715.94;5038192;28;19921;-42
2023/05/19 02:14:40;;;;;;;;;;;;;;;18.30;83.73;99711.97;5021021;28;19927;-42
2023/05/19 02:17:06;;;;;;;;;;;;;;;18.11;83.80;99719.06;5027601;28;19994;-42
2023/05/19 02:19:34;;;;;;;;;;;;;;;17.27;83.98;99724.09;5021349;28;20398;-42
2023/05/19 02:21:59;;;;;;;;;;;;;;;18.03;84.33;99721.25;5038368;28;19925;-42
2023/05/19 02:24:24;;;;;;;;;;;;;;;18.04;84.03;99717.69;5038914;28;19942;-42
2023/05/19 02:26:50;;;;;;;;;;;;;;;17.87;85.14;99732.44;5042274;28;20011;-42
2023/05/19 02:29:16;;;;;;;;;;;;;;;17.95;84.35;99719.88;5042437;28;19917;-42
2023/05/19 02:31:41;;;;;;;;;;;;;;;18.12;83.55;99715.56;5041481;28;19963;-42
2023/05/19 02:34:07;;;;;;;;;;;;;;;18.48;82.52;99706.72;5042073;28;20396;-42
2023/05/19 02:36:34;;;;;;;;;;;;;;;18.19;83.19;99717.75;5043695;28;19917;-42
2023/05/19 02:39:00;;;;;;;;;;;;;;;17.97;83.77;99728.47;5042163;28;20260;-41
2023/05/19 02:41:25;;;;;;;;;;;;;;;17.61;84.70;99725.03;5042658;28;19924;-42
2023/05/19 02:43:51;;;;;;;;;;;;;;;17.28;86.53;99733.56;5042908;28;19921;-42
2023/05/19 02:46:16;;;;;;;;;;;;;;;16.82;87.08;99738.34;5041527;28;20496;-42
2023/05/19 02:48:41;;;;;;;;;;;;;;;16.67;87.75;99735.50;5042857;28;20344;-42
2023/05/19 02:51:06;;;;;;;;;;;;;;;16.83;89.61;99742.63;5041888;28;20326;-42
2023/05/19 02:53:32;;;;;;;;;;;;;;;17.00;89.14;99739.25;5040858;28;20414;-42
2023/05/19 02:55:57;;;;;;;;;;;;;;;17.64;87.04;99717.09;5042056;28;19920;-42
2023/05/19 02:58:22;;;;;;;;;;;;;;;17.80;85.04;99704.97;5043081;28;19921;-44
2023/05/19 03:00:47;;;;;;;;;;;;;;;16.94;87.47;99737.75;5041810;28;20007;-42
2023/05/19 03:03:13;;;;;;;;;;;;;;;16.37;89.55;99744.66;5041665;28;20004;-42
2023/05/19 03:05:38;;;;;;;;;;;;;;;16.47;90.50;99761.56;5041642;28;19960;-42
2023/05/19 03:08:04;;;;;;;;;;;;;;;16.19;91.59;99761.88;5042892;28;19920;-42
2023/05/19 03:10:29;;;;;;;;;;;;;;;15.94;92.60;99772.47;5042547;28;20389;-42
2023/05/19 03:12:54;;;;;;;;;;;;;;;15.73;94.79;99784.59;5042254;28;20310;-42
2023/05/19 03:15:22;;;;;;;;;;;;;;;15.78;95.76;99788.72;5023014;28;20373;-42
2023/05/19 03:17:47;;;;;;;;;;;;;;;15.69;91.11;99747.47;5024017;28;20397;-42
2023/05/19 03:20:14;;;;;;;;;;;;;;;15.58;94.01;99770.47;5043077;28;20032;-42
2023/05/19 03:22:39;;;;;;;;;;;;;;;16.34;91.71;99739.59;5042282;28;19920;-42
2023/05/19 03:25:05;;;;;;;;;;;;;;;15.96;90.29;99734.28;5041038;28;19924;-42
2023/05/19 03:27:30;;;;;;;;;;;;;;;16.71;89.58;99728.38;5043008;28;19927;-42
2023/05/19 03:29:55;;;;;;;;;;;;;;;16.06;88.61;99725.22;5041172;28;19920;-42
2023/05/19 03:32:20;;;;;;;;;;;;;;;16.02;91.76;99749.63;5042468;28;19923;-42
2023/05/19 03:34:46;;;;;;;;;;;;;;;15.52;90.79;99747.34;5041337;28;19946;-42
2023/05/19 03:37:11;;;;;;;;;;;;;;;15.81;89.44;99731.44;5041686;28;20003;-42
2023/05/19 03:39:37;;;;;;;;;;;;;;;16.95;87.71;99704.81;5041409;28;20046;-41
2023/05/19 03:42:02;;;;;;;;;;;;;;;15.58;88.38;99737.56;5042044;28;20305;-42
2023/05/19 03:44:27;;;;;;;;;;;;;;;14.62;92.05;99770.66;5039860;28;19924;-42
2023/05/19 03:46:52;;;;;;;;;;;;;;;15.39;94.04;99770.34;5040847;28;19959;-42
2023/05/19 03:49:17;;;;;;;;;;;;;;;15.72;92.53;99756.94;5041483;28;19952;-42
2023/05/19 03:51:43;;;;;;;;;;;;;;;16.70;90.39;99727.56;5040701;28;19974;-42
2023/05/19 03:54:08;;;;;;;;;;;;;;;16.97;88.87;99728.97;5039710;28;19956;-42
2023/05/19 03:56:36;;;;;;;;;;;;;;;17.46;86.69;99708.41;5040993;28;20106;-42
2023/05/19 03:59:04;;;;;;;;;;;;;;;17.73;84.58;99703.59;5022991;28;19917;-42
2023/05/19 04:01:30;;;;;;;;;;;;;;;17.28;82.43;99689.31;5039653;28;19920;-42
2023/05/19 04:03:55;;;;;;;;;;;;;;;17.82;84.38;99713.59;5023761;28;19924;-42
2023/05/19 04:06:20;;;;;;;;;;;;;;;17.63;82.38;99697.16;5039796;28;20429;-42
2023/05/19 04:08:46;;;;;;;;;;;;;;;16.29;85.19;99732.00;5040874;28;20453;-42
2023/05/19 04:11:11;;;;;;;;;;;;;;;17.10;87.24;99741.34;5042192;28;19931;-42
2023/05/19 04:13:36;;;;;;;;;;;;;;;17.55;83.88;99713.16;5038957;28;19975;-42
2023/05/19 04:16:01;;;;;;;;;;;;;;;17.86;84.05;99714.25;5036272;28;19927;-42
2023/05/19 04:18:27;;;;;;;;;;;;;;;17.72;84.81;99722.75;5041313;28;19978;-42
2023/05/19 04:20:52;;;;;;;;;;;;;;;17.08;83.88;99724.97;5039911;28;20003;-42
2023/05/19 04:23:17;;;;;;;;;;;;;;;17.75;84.53;99717.41;5039640;28;19921;-42
2023/05/19 04:25:42;;;;;;;;;;;;;;;17.51;84.34;99725.47;5038238;28;20036;-42
2023/05/19 04:28:08;;;;;;;;;;;;;;;18.30;83.81;99714.59;5038411;28;19925;-42
2023/05/19 04:30:33;;;;;;;;;;;;;;;18.17;82.89;99705.72;5039226;28;20016;-42
2023/05/19 04:32:59;;;;;;;;;;;;;;;18.25;82.46;99708.78;5039219;28;19947;-42
2023/05/19 04:35:25;;;;;;;;;;;;;;;17.83;84.44;99725.69;5040704;28;19951;-42
2023/05/19 04:37:53;;;;;;;;;;;;;;;16.94;88.75;99769.00;5039834;28;20396;-42
2023/05/19 04:40:19;;;;;;;;;;;;;;;16.01;90.49;99776.50;5038602;28;19954;-42
2023/05/19 04:42:45;;;;;;;;;;;;;;;15.58;91.92;99780.84;5040356;28;19971;-42
2023/05/19 04:45:12;;;;;;;;;;;;;;;18.29;87.04;99712.91;5037186;28;20464;-42
2023/05/19 04:47:38;;;;;;;;;;;;;;;18.01;83.94;99699.63;5040221;28;19928;-42
2023/05/19 04:50:03;;;;;;;;;;;;;;;18.16;85.38;99722.28;5038229;28;20362;-42
2023/05/19 04:52:28;;;;;;;;;;;;;;;18.66;84.18;99704.91;5021474;28;19913;-42
2023/05/19 04:54:54;;;;;;;;;;;;;;;18.39;83.96;99708.88;5039141;28;19932;-42
2023/05/19 04:57:19;;;;;;;;;;;;;;;18.39;83.97;99708.88;5040376;28;19921;-42
2023/05/19 04:59:45;;;;;;;;;;;;;;;18.07;80.60;99696.72;5037364;28;19925;-42
2023/05/19 05:02:10;;;;;;;;;;;;;;;18.07;84.46;99727.97;5040088;28;19920;-42
2023/05/19 05:04:35;;;;;;;;;;;;;;;17.98;83.81;99719.69;5041215;28;19917;-42
2023/05/19 05:07:00;;;;;;;;;;;;;;;17.64;84.65;99737.94;5039259;28;19994;-42
2023/05/19 05:09:26;;;;;;;;;;;;;;;16.80;89.39;99766.19;5039508;28;19963;-42
2023/05/19 05:11:51;;;;;;;;;;;;;;;16.87;85.92;99723.34;5040484;28;19967;-42
2023/05/19 05:14:16;;;;;;;;;;;;;;;17.92;86.98;99727.81;5041088;28;19964;-42
2023/05/19 05:16:42;;;;;;;;;;;;;;;18.52;84.54;99703.00;5038171;28;20059;-42
2023/05/19 05:19:07;;;;;;;;;;;;;;;17.70;85.94;99732.41;5039845;28;19920;-42
2023/05/19 05:21:32;;;;;;;;;;;;;;;17.89;86.63;99728.00;5040091;28;19920;-40
2023/05/19 05:23:58;;;;;;;;;;;;;;;18.08;87.79;99738.31;5039956;28;19963;-40
2023/05/19 05:26:23;;;;;;;;;;;;;;;18.89;86.16;99716.72;5038888;28;19964;-40
2023/05/19 05:28:48;;;;;;;;;;;;;;;19.84;81.12;99685.19;5021600;28;19920;-39
2023/05/19 05:31:14;;;;;;;;;;;;;;;17.39;83.80;99725.25;5040169;28;20820;-40
2023/05/19 05:33:40;;;;;;;;;;;;;;;16.93;85.62;99736.94;5039397;28;20819;-40
2023/05/19 05:36:05;;;;;;;;;;;;;;;17.73;87.57;99746.13;5039917;28;19962;-40
2023/05/19 05:38:31;;;;;;;;;;;;;;;18.37;86.25;99728.16;5038901;28;19948;-41
2023/05/19 05:40:56;;;;;;;;;;;;;;;17.76;85.07;99727.72;5036373;28;20013;-40
2023/05/19 05:43:21;;;;;;;;;;;;;;;18.09;85.75;99728.75;5038376;28;19944;-40
2023/05/19 05:45:46;;;;;;;;;;;;;;;19.46;84.38;99714.38;5037532;28;19960;-40
2023/05/19 05:48:12;;;;;;;;;;;;;;;20.79;79.14;99679.38;5039058;28;20031;-40
2023/05/19 05:50:37;;;;;;;;;;;;;;;19.61;80.74;99700.44;5038082;28;19928;-40
2023/05/19 05:53:02;;;;;;;;;;;;;;;19.76;79.98;99695.28;5037711;28;19935;-40
2023/05/19 05:55:28;;;;;;;;;;;;;;;18.94;79.10;99694.66;5039010;28;20413;-40
2023/05/19 05:57:55;;;;;;;;;;;;;;;17.66;85.37;99760.38;5019993;28;19920;-40
2023/05/19 06:00:21;;;;;;;;;;;;;;;19.01;83.36;99719.47;5037309;28;19977;-40
2023/05/19 06:02:48;;;;;;;;;;;;;;;19.04;83.73;99721.06;5038904;28;20015;-40
2023/05/19 06:05:13;;;;;;;;;;;;;;;18.17;83.56;99726.56;4990055;28;20586;-40
2023/05/19 06:07:39;;;;;;;;;;;;;;;19.48;82.51;99699.47;5037747;28;19921;-40
2023/05/19 06:10:04;;;;;;;;;;;;;;;18.98;82.79;99700.56;5038009;28;20492;-40
2023/05/19 06:12:30;;;;;;;;;;;;;;;17.67;83.48;99724.75;5036240;28;20420;-40
2023/05/19 06:14:55;;;;;;;;;;;;;;;17.65;87.89;99752.63;5036343;28;19967;-40
2023/05/19 06:17:20;;;;;;;;;;;;;;;17.85;88.33;99752.50;5036994;28;20007;-40
2023/05/19 06:19:45;;;;;;;;;;;;;;;20.55;80.35;99670.41;5037510;28;20000;-40
2023/05/19 06:22:11;;;;;;;;;;;;;;;18.93;81.77;99708.66;5038119;28;20019;-40
2023/05/19 06:24:36;;;;;;;;;;;;;;;18.06;82.74;99715.84;5037340;28;20027;-40
2023/05/19 06:27:01;;;;;;;;;;;;;;;19.55;80.29;99685.09;5037634;28;20016;-40
2023/05/19 06:29:26;;;;;;;;;;;;;;;18.22;84.23;99727.16;5038360;28;19999;-40
2023/05/19 06:31:51;;;;;;;;;;;;;;;17.67;85.25;99740.38;5019480;28;20020;-40
2023/05/19 06:34:17;;;;;;;;;;;;;;;18.79;85.37;99722.44;5038665;28;19971;-40
2023/05/19 06:36:42;;;;;;;;;;;;;;;19.10;85.70;99723.34;5035620;28;19967;-40
2023/05/19 06:39:07;;;;;;;;;;;;;;;19.04;85.01;99715.84;5038780;28;19982;-40
2023/05/19 06:41:33;;;;;;;;;;;;;;;18.89;82.49;99701.91;5038077;28;20964;-40
2023/05/19 06:43:58;;;;;;;;;;;;;;;18.24;84.28;99720.13;5038792;28;20762;-40
2023/05/19 06:46:23;;;;;;;;;;;;;;;18.59;84.02;99713.06;5037832;28;20310;-40
2023/05/19 06:48:49;;;;;;;;;;;;;;;20.62;78.23;99653.47;5037404;28;19924;-40
2023/05/19 06:51:20;;;;;;;;;;;;;;;20.43;78.64;99678.09;5038572;28;19968;-40
2023/05/19 06:53:45;;;;;;;;;;;;;;;20.21;83.31;99715.22;5037637;28;19931;-40
2023/05/19 06:56:10;;;;;;;;;;;;;;;19.99;77.72;99673.00;5038406;28;19920;-40
2023/05/19 06:58:35;;;;;;;;;;;;;;;20.95;77.94;99662.72;5039008;28;19931;-40
2023/05/19 07:01:01;;;;;;;;;;;;;;;22.08;73.59;99631.56;5037442;28;19921;-40
2023/05/19 07:03:26;;;;;;;;;;;;;;;20.59;80.19;99692.88;5037366;28;19921;-40
2023/05/19 07:05:51;;;;;;;;;;;;;;;21.95;80.00;99670.06;5038527;28;19924;-40
2023/05/19 07:08:16;;;;;;;;;;;;;;;20.92;83.79;99700.41;5038065;28;19916;-40
2023/05/19 07:10:42;;;;;;;;;;;;;;;20.93;84.57;99701.25;5038008;28;20290;-40
2023/05/19 07:13:07;;;;;;;;;;;;;;;21.47;84.10;99696.84;5041434;28;20353;-40
2023/05/19 07:15:32;;;;;;;;;;;;;;;22.41;82.29;99671.31;5040566;28;19978;-40
2023/05/19 07:17:57;;;;;;;;;;;;;;;20.52;85.93;99721.19;5042354;28;19920;-40
2023/05/19 07:20:23;;;;;;;;;;;;;;;21.70;82.85;99684.00;5040323;28;19979;-40
2023/05/19 07:22:48;;;;;;;;;;;;;;;19.85;85.79;99729.53;5039428;28;19924;-40
2023/05/19 07:25:13;;;;;;;;;;;;;;;20.62;89.14;99737.22;5039479;28;19916;-40
2023/05/19 07:27:38;;;;;;;;;;;;;;;20.05;90.74;99746.66;5040536;28;19932;-40
2023/05/19 07:30:04;;;;;;;;;;;;;;;21.34;85.04;99689.88;5040356;28;19921;-40
2023/05/19 07:32:29;;;;;;;;;;;;;;;22.02;86.87;99705.41;5039098;28;19989;-40
2023/05/19 07:34:54;;;;;;;;;;;;;;;21.61;86.48;99710.81;5041282;28;19920;-40
2023/05/19 07:37:19;;;;;;;;;;;;;;;21.28;84.51;99686.72;5042119;28;19921;-40
2023/05/19 07:39:45;;;;;;;;;;;;;;;21.94;82.67;99681.50;5041118;28;19913;-40
2023/05/19 07:42:10;;;;;;;;;;;;;;;21.91;88.27;99726.28;5041365;28;19925;-40
2023/05/19 07:44:35;;;;;;;;;;;;;;;20.79;89.90;99747.44;5039931;28;20305;-40
2023/05/19 07:47:00;;;;;;;;;;;;;;;22.27;87.44;99706.38;5041675;28;19917;-40
2023/05/19 07:49:26;;;;;;;;;;;;;;;23.89;82.12;99661.38;5042112;28;20480;-40
2023/05/19 07:51:51;;;;;;;;;;;;;;;22.46;85.64;99704.13;5041308;28;20010;-40
2023/05/19 07:54:17;;;;;;;;;;;;;;;21.11;86.88;99715.78;5040935;28;20416;-40
2023/05/19 07:56:42;;;;;;;;;;;;;;;22.13;88.47;99710.75;5041232;28;19916;-40
2023/05/19 07:59:07;;;;;;;;;;;;;;;21.40;83.39;99679.00;5040968;28;19924;-40
2023/05/19 08:01:32;;;;;;;;;;;;;;;22.10;86.51;99700.50;5041089;28;19924;-40
2023/05/19 08:03:58;;;;;;;;;;;;;;;21.38;87.78;99717.56;5038409;28;19917;-40
2023/05/19 08:06:24;;;;;;;;;;;;;;;21.68;84.64;99685.88;5041113;28;20054;-40
2023/05/19 08:08:49;;;;;;;;;;;;;;;22.87;82.63;99668.84;5042143;28;19917;-40
2023/05/19 08:11:14;;;;;;;;;;;;;;;;;;5040451;28;20321;-40
2023/05/19 08:13:39;;;;;;;;;;;;;;;23.29;78.01;99647.47;5041083;28;19920;-40
2023/05/19 08:16:05;;;;;;;;;;;;;;;22.41;79.97;99666.06;5039354;28;20402;-40
2023/05/19 08:18:30;;;;;;;;;;;;;;;22.32;77.69;99650.00;5041178;28;19921;-41
2023/05/19 08:20:55;;;;;;;;;;;;;;;22.13;81.79;99681.91;5039399;28;20282;-41
2023/05/19 08:23:20;;;;;;;;;;;;;;;23.93;79.82;99652.28;5038772;28;20019;-40
2023/05/19 08:25:46;;;;;;;;;;;;;;;23.10;77.48;99647.97;5041133;28;20015;-40
2023/05/19 08:28:11;;;;;;;;;;;;;;;22.51;80.19;99653.94;5040072;28;19917;-40
2023/05/19 08:30:36;;;;;;;;;;;;;;;23.36;74.00;99614.50;5040293;28;20377;-40
2023/05/19 08:33:02;;;;;;;;;;;;;;;21.13;79.25;99666.75;5041025;28;20370;-40
2023/05/19 08:35:27;;;;;;;;;;;;;;;22.82;79.68;99644.72;5021102;28;20012;-40
2023/05/19 08:37:52;;;;;;;;;;;;;;;20.93;78.02;99641.84;5038049;28;19928;-40
2023/05/19 08:40:18;;;;;;;;;;;;;;;23.11;82.61;99660.19;5040806;28;21088;-40
2023/05/19 08:42:44;;;;;;;;;;;;;;;21.66;74.44;99612.56;5023286;28;20354;-40
2023/05/19 08:45:09;;;;;;;;;;;;;;;21.39;69.07;99575.09;5040004;28;19928;-40
2023/05/19 08:47:34;;;;;;;;;;;;;;;23.16;70.28;99581.84;5039403;28;20018;-40
2023/05/19 08:50:04;;;;;;;;;;;;;;;22.71;62.76;99547.50;5040720;28;19925;-40
2023/05/19 08:52:48;;;;;;;;;;;;;;;22.76;70.11;99593.50;5039892;28;19928;-40
2023/05/19 08:55:24;;;;;;;;;;;;;;;22.34;72.15;99592.16;5039220;28;20383;-40
2023/05/19 08:57:50;;;;;;;;;;;;;;;23.49;70.47;99567.94;5040862;28;19920;-40
2023/05/19 09:00:15;;;;;;;;;;;;;;;23.75;67.33;99565.94;5039561;28;20251;-40
2023/05/19 09:02:41;;;;;;;;;;;;;;;25.11;62.41;99524.31;5039225;28;20583;-40
2023/05/19 09:05:06;;;;;;;;;;;;;;;24.17;64.77;99546.91;5041325;28;19917;-40
2023/05/19 09:07:34;;;;;;;;;;;;;;;23.14;66.79;99571.44;5040222;28;20713;-40
2023/05/19 09:10:00;;;;;;;;;;;;;;;22.98;64.93;99548.06;5039846;28;20043;-40
2023/05/19 09:12:25;;;;;;;;;;;;;;;22.89;62.47;99527.75;5039947;28;20011;-40
2023/05/19 09:14:50;;;;;;;;;;;;;;;25.82;59.25;99505.94;5038984;28;20499;-40
2023/05/19 09:17:17;;;;;;;;;;;;;;;23.85;61.58;99533.66;5040369;28;19917;-40
2023/05/19 09:19:43;;;;;;;;;;;;;;;23.76;65.88;99551.81;5039404;28;19947;-40
2023/05/19 09:22:08;;;;;;;;;;;;;;;23.01;70.48;99577.72;5020915;28;19921;-40
2023/05/19 09:24:33;;;;;;;;;;;;;;;24.90;63.51;99505.00;5039554;28;20459;-40
2023/05/19 09:26:59;;;;;;;;;;;;;;;23.60;64.14;99535.53;5035855;28;20352;-40
2023/05/19 09:29:24;;;;;;;;;;;;;;;22.47;66.24;99556.22;5038711;28;19925;-40
2023/05/19 09:31:50;;;;;;;;;;;;;;;22.51;65.37;99538.44;5023597;28;19917;-40
2023/05/19 09:34:16;;;;;;;;;;;;;;;23.10;67.11;99540.25;5021755;28;20612;-40
2023/05/19 09:36:41;;;;;;;;;;;;;;;21.86;71.24;99573.66;5037108;28;19983;-40
2023/05/19 09:39:13;;;;;;;;;;;;;;;23.65;66.57;99530.78;5020032;28;19931;-40
2023/05/19 09:41:39;;;;;;;;;;;;;;;22.80;65.04;99536.31;5035973;28;19925;-41
2023/05/19 09:44:06;;;;;;;;;;;;;;;24.13;68.44;99543.69;5039507;28;19931;-40
2023/05/19 09:46:32;;;;;;;;;;;;;;;22.78;63.71;99527.72;5039249;28;20289;-40
2023/05/19 09:48:57;;;;;;;;;;;;;;;23.84;61.67;99516.22;5039937;28;19924;-40
2023/05/19 09:51:23;;;;;;;;;;;;;;;23.96;61.50;99509.97;5038620;28;19920;-40
2023/05/19 09:53:48;;;;;;;;;;;;;;;23.02;62.90;99509.31;5037352;28;20133;-40
2023/05/19 09:56:13;;;;;;;;;;;;;;;23.91;68.05;99543.72;5040005;28;19924;-41
2023/05/19 09:58:40;;;;;;;;;;;;;;;24.62;59.74;99478.34;5039916;28;19917;-40
2023/05/19 10:01:06;;;;;;;;;;;;;;;24.30;55.10;99467.78;5037319;28;19917;-40
2023/05/19 10:03:31;;;;;;;;;;;;;;;24.50;60.26;99485.47;5021442;28;19928;-40
2023/05/19 10:05:56;;;;;;;;;;;;;;;24.74;58.76;99471.22;5039476;28;19921;-41
2023/05/19 10:08:25;;;;;;;;;;;;;;;26.55;52.18;99447.56;5021729;28;19928;-40
2023/05/19 10:10:50;;;;;;;;;;;;;;;23.49;57.59;99475.94;5039049;28;19917;-40
2023/05/19 10:13:15;;;;;;;;;;;;;;;25.60;55.54;99462.09;5020490;28;19924;-40
2023/05/19 10:15:44;;;;;;;;;;;;;;;25.59;52.55;99449.91;5035347;28;19928;-40
2023/05/19 10:18:09;;;;;;;;;;;;;;;23.83;50.29;99436.47;5037803;28;20186;-40
2023/05/19 10:20:35;;;;;;;;;;;;;;;25.77;50.44;99438.69;5038961;28;20019;-40
2023/05/19 10:23:01;;;;;;;;;;;;;;;26.92;44.22;99384.19;5019525;28;19967;-40
2023/05/19 10:25:27;;;;;;;;;;;;;;;25.84;47.59;99427.47;5039240;28;20413;-40
2023/05/19 10:27:53;;;;;;;;;;;;;;;25.51;43.71;99398.78;5021628;28;19923;-40
2023/05/19 10:30:51;;;;;;;;;;;;;;;26.99;46.00;99402.13;5021779;28;19917;-40
2023/05/19 10:33:16;;;;;;;;;;;;;;;24.24;48.94;99424.38;4993654;28;21173;-40
2023/05/19 10:35:51;;;;;;;;;;;;;;;26.15;50.34;99424.75;5021316;28;19917;-46
2023/05/19 10:38:16;;;;;;;;;;;;;;;25.57;46.80;99401.72;5039579;28;19916;-40
2023/05/19 10:41:07;;;;;;;;;;;;;;;25.76;51.59;99429.13;5037557;28;19928;-40
2023/05/19 10:43:41;;;;;;;;;;;;;;;23.05;47.32;99400.53;5008736;28;19928;-40
2023/05/19 10:46:07;;;;;;;;;;;;;;;26.45;52.32;99430.84;5037481;28;19921;-40
2023/05/19 10:48:32;;;;;;;;;;;;;;;25.61;45.73;99384.66;5040128;28;19935;-40
2023/05/19 10:50:57;;;;;;;;;;;;;;;23.98;46.87;99402.84;5038390;28;19921;-40
2023/05/19 10:53:29;;;;;;;;;;;;;;;24.72;43.45;99386.22;5019909;28;19920;-41
2023/05/19 10:55:55;;;;;;;;;;;;;;;25.61;46.28;99415.47;5022408;28;20113;-40
2023/05/19 10:58:35;;;;;;;;;;;;;;;24.97;45.01;99396.31;5042082;28;19984;-40
2023/05/19 11:01:00;;;;;;;;;;;;;;;25.42;47.66;99406.53;5040839;28;20011;-40
2023/05/19 11:03:26;;;;;;;;;;;;;;;25.84;48.86;99409.00;5042701;28;20028;-40
2023/05/19 11:05:51;;;;;;;;;;;;;;;26.70;44.11;99361.59;5019682;28;19925;-40
2023/05/19 11:08:17;;;;;;;;;;;;;;;25.41;45.50;99386.41;5042343;28;20000;-40
2023/05/19 11:10:43;;;;;;;;;;;;;;;26.49;43.89;99363.56;5021429;28;20887;-40
2023/05/19 11:13:17;;;;;;;;;;;;;;;26.25;40.53;99346.38;5039871;28;19925;-40
2023/05/19 11:15:42;;;;;;;;;;;;;;;29.17;44.71;99373.56;5040068;28;19921;-40
2023/05/19 11:18:07;;;;;;;;;;;;;;;26.98;43.68;99366.94;5018881;28;19924;-40
2023/05/19 11:20:33;;;;;;;;;;;;;;;25.71;46.98;99395.22;5039354;28;19925;-40
2023/05/19 11:23:06;;;;;;;;;;;;;;;25.45;46.29;99387.81;5023664;28;19920;-40
2023/05/19 11:25:40;;;;;;;;;;;;;;;25.87;44.50;99374.44;5040913;28;19927;-40
2023/05/19 11:28:05;;;;;;;;;;;;;;;25.66;42.69;99358.72;5041292;28;19925;-40
2023/05/19 11:30:30;;;;;;;;;;;;;;;26.37;45.48;99370.00;5041287;28;19927;-40
2023/05/19 11:32:56;;;;;;;;;;;;;;;27.17;42.24;99341.41;5040760;28;19917;-40
2023/05/19 11:35:21;;;;;;;;;;;;;;;28.14;40.65;99335.44;5022237;28;19927;-40
2023/05/19 11:37:46;;;;;;;;;;;;;;;24.57;41.48;99340.97;5039203;28;19921;-40
2023/05/19 11:40:12;;;;;;;;;;;;;;;26.07;45.59;99374.47;5015668;28;20007;-40
2023/05/19 11:42:37;;;;;;;;;;;;;;;25.18;43.54;99359.44;5036026;28;19963;-40
2023/05/19 11:45:03;;;;;;;;;;;;;;;26.24;44.85;99376.38;5037709;28;21150;-40
2023/05/19 11:47:29;;;;;;;;;;;;;;;26.73;46.25;99386.06;5036060;28;19975;-40
2023/05/19 11:49:57;;;;;;;;;;;;;;;26.19;40.54;99325.00;5036252;28;20425;-40
2023/05/19 11:52:23;;;;;;;;;;;;;;;29.03;37.64;99299.06;5034604;28;19921;-40
2023/05/19 11:54:48;;;;;;;;;;;;;;;27.95;39.04;99320.56;5038724;28;19922;-40
2023/05/19 11:57:14;;;;;;;;;;;;;;;27.81;41.00;99329.84;5039519;28;19967;-40
2023/05/19 11:59:44;;;;;;;;;;;;;;;26.75;46.11;99365.63;5037636;28;19932;-40
2023/05/19 12:02:18;;;;;;;;;;;;;;;27.33;42.92;99341.63;5040501;28;20123;-40
2023/05/19 12:04:43;;;;;;;;;;;;;;;26.05;44.66;99371.13;5041514;28;19927;-40
2023/05/19 12:07:12;;;;;;;;;;;;;;;29.45;40.90;99322.91;5039341;28;20305;-40
2023/05/19 12:09:37;;;;;;;;;;;;;;;27.86;43.95;99354.09;5037496;28;20410;-40
2023/05/19 12:12:03;;;;;;;;;;;;;;;28.44;43.53;99336.00;5023688;28;19967;-40
2023/05/19 12:14:28;;;;;;;;;;;;;;;26.11;41.24;99332.78;5039440;28;19998;-40
2023/05/19 12:16:54;;;;;;;;;;;;;;;26.15;42.48;99344.72;5039724;28;19916;-40
2023/05/19 12:19:21;;;;;;;;;;;;;;;26.91;41.43;99328.84;5039582;28;19924;-40
2023/05/19 12:21:46;;;;;;;;;;;;;;;26.90;44.61;99366.81;5035383;28;20651;-40
2023/05/19 12:24:11;;;;;;;;;;;;;;;26.09;40.79;99314.44;5018077;28;19922;-40
2023/05/19 12:26:37;;;;;;;;;;;;;;;26.47;41.03;99323.25;5020306;28;20401;-40
2023/05/19 12:29:06;;;;;;;;;;;;;;;26.82;41.61;99306.78;5020319;28;20562;-41
2023/05/19 12:31:31;;;;;;;;;;;;;;;26.65;38.49;99287.22;5008040;28;19921;-41
2023/05/19 12:33:57;;;;;;;;;;;;;;;29.10;37.27;99282.38;5036752;28;20348;-41
2023/05/19 12:36:22;;;;;;;;;;;;;;;29.31;36.55;99281.94;5038894;28;19991;-40
2023/05/19 12:38:47;;;;;;;;;;;;;;;26.25;42.32;99327.03;5038791;28;20069;-41
2023/05/19 12:41:13;;;;;;;;;;;;;;;28.92;38.78;99286.91;5021566;28;19924;-41
2023/05/19 12:43:39;;;;;;;;;;;;;;;27.04;41.12;99326.69;5038399;28;19969;-41